CheckWX is a tool to help pilots better visualize weather data.  It is not intended as a substitute for an official pre-flight weather briefing.

19:38:15 UTC

KHNB METAR
Huntingburg Airport
Huntingburg, Indiana, USA
Current

42 mins ago

KHNB 161856Z AUTO 30004KT 10SM CLR 10/M01 A3009 RMK AO2 SLP192 T01001011
Observed
Feb-16 @ 18:56 UTC
Wind
  • 300° at 4 KTS
Visibility
10 SM
Flight Rules
VFR
Cloud Levels
  • Clear skies
Temperature
10°C / 50°F
Dewpoint
-1°C / 30°F
Humidity
47%
Altimeter
30.09" Hg
Pressure
1018.92 hPa
Previous

2 hours ago

KHNB 161756Z AUTO 26004KT 10SM SCT060 09/M01 A3010 RMK AO2 SLP197 T00941006 10094 20006 58008
Observed
Feb-16 @ 17:56 UTC
Wind
  • 260° at 4 KTS
Visibility
10 SM
Flight Rules
VFR
Cloud Levels
  • Scattered at 6,000' AGL
Temperature
C / 48°F
Dewpoint
-1°C / 30°F
Humidity
50%
Altimeter
30.1" Hg
Pressure
1019.32 hPa
Previous

3 hours ago

KHNB 161656Z AUTO 00000KT 10SM OVC060 08/M01 A3012 RMK AO2 SLP205 T00831006
Observed
Feb-16 @ 16:56 UTC
Visibility
10 SM
Flight Rules
VFR
Cloud Levels
  • Overcast at 6,000' AGL
Temperature
C / 46°F
Dewpoint
-1°C / 30°F
Humidity
53%
Altimeter
30.12" Hg
Pressure
1020.02 hPa